sensor_id;sensor_type;location;lat;lon;timestamp;P1;durP1;ratioP1;P2;durP2;ratioP2
53010;SDS011;42803;55.762;38.084;2023-02-17T00:00:24;12.38;;;6.13;;
53010;SDS011;42803;55.762;38.084;2023-02-17T00:02:54;12.60;;;5.75;;
53010;SDS011;42803;55.762;38.084;2023-02-17T00:05:24;15.98;;;6.07;;
53010;SDS011;42803;55.762;38.084;2023-02-17T00:07:58;15.73;;;6.30;;
53010;SDS011;42803;55.762;38.084;2023-02-17T00:10:27;15.02;;;5.68;;
53010;SDS011;42803;55.762;38.084;2023-02-17T00:12:56;14.23;;;6.13;;
53010;SDS011;42803;55.762;38.084;2023-02-17T00:15:25;11.07;;;5.07;;
53010;SDS011;42803;55.762;38.084;2023-02-17T00:17:53;8.50;;;5.20;;
53010;SDS011;42803;55.762;38.084;2023-02-17T00:20:22;15.98;;;6.03;;
53010;SDS011;42803;55.762;38.084;2023-02-17T00:22:51;12.07;;;6.15;;
53010;SDS011;42803;55.762;38.084;2023-02-17T00:25:22;14.10;;;5.97;;
53010;SDS011;42803;55.762;38.084;2023-02-17T00:27:51;13.20;;;6.53;;
53010;SDS011;42803;55.762;38.084;2023-02-17T00:30:20;16.08;;;6.25;;
53010;SDS011;42803;55.762;38.084;2023-02-17T00:32:49;12.07;;;6.28;;
53010;SDS011;42803;55.762;38.084;2023-02-17T00:35:18;10.68;;;5.80;;
53010;SDS011;42803;55.762;38.084;2023-02-17T00:37:47;13.82;;;6.43;;
53010;SDS011;42803;55.762;38.084;2023-02-17T00:40:17;12.60;;;5.80;;
53010;SDS011;42803;55.762;38.084;2023-02-17T00:42:47;16.33;;;7.05;;
53010;SDS011;42803;55.762;38.084;2023-02-17T00:45:17;15.60;;;6.05;;
53010;SDS011;42803;55.762;38.084;2023-02-17T00:47:47;15.02;;;6.53;;
53010;SDS011;42803;55.762;38.084;2023-02-17T00:50:16;10.90;;;5.75;;
53010;SDS011;42803;55.762;38.084;2023-02-17T00:52:46;18.65;;;6.72;;
53010;SDS011;42803;55.762;38.084;2023-02-17T00:55:15;14.25;;;6.57;;
53010;SDS011;42803;55.762;38.084;2023-02-17T00:57:44;15.05;;;6.68;;
53010;SDS011;42803;55.762;38.084;2023-02-17T01:00:15;13.50;;;5.95;;
53010;SDS011;42803;55.762;38.084;2023-02-17T01:02:45;14.80;;;6.38;;
53010;SDS011;42803;55.762;38.084;2023-02-17T01:05:15;20.13;;;7.38;;
53010;SDS011;42803;55.762;38.084;2023-02-17T01:07:45;16.08;;;6.32;;
53010;SDS011;42803;55.762;38.084;2023-02-17T01:10:14;12.38;;;6.93;;
53010;SDS011;42803;55.762;38.084;2023-02-17T01:12:44;18.27;;;7.03;;
53010;SDS011;42803;55.762;38.084;2023-02-17T01:15:14;19.92;;;7.68;;
53010;SDS011;42803;55.762;38.084;2023-02-17T01:17:43;17.27;;;6.88;;
53010;SDS011;42803;55.762;38.084;2023-02-17T01:20:12;20.23;;;7.45;;
53010;SDS011;42803;55.762;38.084;2023-02-17T01:22:42;15.15;;;7.60;;
53010;SDS011;42803;55.762;38.084;2023-02-17T01:25:11;20.15;;;7.40;;
53010;SDS011;42803;55.762;38.084;2023-02-17T01:27:40;15.65;;;6.18;;
53010;SDS011;42803;55.762;38.084;2023-02-17T01:30:09;13.73;;;7.22;;
53010;SDS011;42803;55.762;38.084;2023-02-17T01:32:40;19.40;;;7.25;;
53010;SDS011;42803;55.762;38.084;2023-02-17T01:35:09;14.50;;;6.57;;
53010;SDS011;42803;55.762;38.084;2023-02-17T01:37:39;18.13;;;7.35;;
53010;SDS011;42803;55.762;38.084;2023-02-17T01:40:08;19.48;;;6.35;;
53010;SDS011;42803;55.762;38.084;2023-02-17T01:42:38;19.45;;;7.88;;
53010;SDS011;42803;55.762;38.084;2023-02-17T01:45:30;16.65;;;7.30;;
53010;SDS011;42803;55.762;38.084;2023-02-17T01:48:14;15.23;;;6.57;;
53010;SDS011;42803;55.762;38.084;2023-02-17T01:53:18;14.18;;;5.40;;
53010;SDS011;42803;55.762;38.084;2023-02-17T01:55:52;19.13;;;7.03;;
53010;SDS011;42803;55.762;38.084;2023-02-17T01:58:23;15.07;;;6.20;;
53010;SDS011;42803;55.762;38.084;2023-02-17T02:00:54;17.55;;;7.20;;
53010;SDS011;42803;55.762;38.084;2023-02-17T02:03:28;15.07;;;6.65;;
53010;SDS011;42803;55.762;38.084;2023-02-17T02:06:00;16.95;;;7.80;;
53010;SDS011;42803;55.762;38.084;2023-02-17T02:08:34;15.55;;;7.22;;
53010;SDS011;42803;55.762;38.084;2023-02-17T02:11:10;16.45;;;6.80;;
53010;SDS011;42803;55.762;38.084;2023-02-17T02:13:39;15.52;;;7.75;;
53010;SDS011;42803;55.762;38.084;2023-02-17T02:16:30;20.60;;;6.88;;
53010;SDS011;42803;55.762;38.084;2023-02-17T02:19:12;15.13;;;7.85;;
53010;SDS011;42803;55.762;38.084;2023-02-17T02:22:03;17.50;;;7.47;;
53010;SDS011;42803;55.762;38.084;2023-02-17T02:24:56;17.48;;;7.40;;
53010;SDS011;42803;55.762;38.084;2023-02-17T02:27:39;14.98;;;6.97;;
53010;SDS011;42803;55.762;38.084;2023-02-17T02:33:26;16.20;;;7.82;;
53010;SDS011;42803;55.762;38.084;2023-02-17T02:36:02;17.02;;;7.82;;
53010;SDS011;42803;55.762;38.084;2023-02-17T02:38:39;22.38;;;8.13;;
53010;SDS011;42803;55.762;38.084;2023-02-17T02:41:12;17.92;;;7.00;;
53010;SDS011;42803;55.762;38.084;2023-02-17T02:43:46;15.82;;;7.40;;
53010;SDS011;42803;55.762;38.084;2023-02-17T02:46:15;17.95;;;8.43;;
53010;SDS011;42803;55.762;38.084;2023-02-17T02:48:46;18.27;;;7.55;;
53010;SDS011;42803;55.762;38.084;2023-02-17T02:54:16;23.38;;;7.93;;
53010;SDS011;42803;55.762;38.084;2023-02-17T02:57:04;17.95;;;7.85;;
53010;SDS011;42803;55.762;38.084;2023-02-17T02:59:46;18.02;;;7.65;;
53010;SDS011;42803;55.762;38.084;2023-02-17T03:02:33;23.02;;;8.77;;
53010;SDS011;42803;55.762;38.084;2023-02-17T03:05:14;18.77;;;7.00;;
53010;SDS011;42803;55.762;38.084;2023-02-17T03:07:52;16.48;;;8.15;;
53010;SDS011;42803;55.762;38.084;2023-02-17T03:10:26;18.95;;;7.78;;
53010;SDS011;42803;55.762;38.084;2023-02-17T03:12:56;17.45;;;7.40;;
53010;SDS011;42803;55.762;38.084;2023-02-17T03:15:27;17.08;;;6.80;;
53010;SDS011;42803;55.762;38.084;2023-02-17T03:18:00;22.08;;;7.88;;
53010;SDS011;42803;55.762;38.084;2023-02-17T03:20:33;19.30;;;8.27;;
53010;SDS011;42803;55.762;38.084;2023-02-17T03:23:06;19.73;;;8.73;;
53010;SDS011;42803;55.762;38.084;2023-02-17T03:25:35;17.98;;;8.15;;
53010;SDS011;42803;55.762;38.084;2023-02-17T03:28:04;16.83;;;7.10;;
53010;SDS011;42803;55.762;38.084;2023-02-17T03:30:34;18.23;;;8.30;;
53010;SDS011;42803;55.762;38.084;2023-02-17T03:33:04;21.80;;;8.02;;
53010;SDS011;42803;55.762;38.084;2023-02-17T03:35:35;16.75;;;7.22;;
53010;SDS011;42803;55.762;38.084;2023-02-17T03:38:04;20.15;;;7.80;;
53010;SDS011;42803;55.762;38.084;2023-02-17T03:40:33;15.95;;;7.53;;
53010;SDS011;42803;55.762;38.084;2023-02-17T03:43:02;22.80;;;8.50;;
53010;SDS011;42803;55.762;38.084;2023-02-17T03:45:34;19.02;;;7.75;;
53010;SDS011;42803;55.762;38.084;2023-02-17T03:48:03;19.45;;;8.68;;
53010;SDS011;42803;55.762;38.084;2023-02-17T03:50:33;20.15;;;8.27;;
53010;SDS011;42803;55.762;38.084;2023-02-17T03:53:03;18.85;;;9.15;;
53010;SDS011;42803;55.762;38.084;2023-02-17T03:55:32;17.75;;;8.45;;
53010;SDS011;42803;55.762;38.084;2023-02-17T03:58:02;19.73;;;8.18;;
53010;SDS011;42803;55.762;38.084;2023-02-17T04:00:31;12.63;;;8.38;;
53010;SDS011;42803;55.762;38.084;2023-02-17T04:03:00;20.70;;;9.02;;
53010;SDS011;42803;55.762;38.084;2023-02-17T04:05:29;19.13;;;8.60;;
53010;SDS011;42803;55.762;38.084;2023-02-17T04:07:59;22.73;;;8.80;;
53010;SDS011;42803;55.762;38.084;2023-02-17T04:10:29;17.98;;;8.25;;
53010;SDS011;42803;55.762;38.084;2023-02-17T04:12:58;18.98;;;8.82;;
53010;SDS011;42803;55.762;38.084;2023-02-17T04:15:27;21.00;;;9.02;;
53010;SDS011;42803;55.762;38.084;2023-02-17T04:17:57;15.90;;;7.80;;
53010;SDS011;42803;55.762;38.084;2023-02-17T04:20:26;16.80;;;8.50;;
53010;SDS011;42803;55.762;38.084;2023-02-17T04:22:55;18.63;;;7.65;;
53010;SDS011;42803;55.762;38.084;2023-02-17T04:25:26;16.05;;;7.50;;
53010;SDS011;42803;55.762;38.084;2023-02-17T04:27:55;18.95;;;8.40;;
53010;SDS011;42803;55.762;38.084;2023-02-17T04:30:24;21.52;;;8.85;;
53010;SDS011;42803;55.762;38.084;2023-02-17T04:32:53;18.83;;;8.50;;
53010;SDS011;42803;55.762;38.084;2023-02-17T04:35:22;17.33;;;7.65;;
53010;SDS011;42803;55.762;38.084;2023-02-17T04:37:51;18.38;;;8.55;;
53010;SDS011;42803;55.762;38.084;2023-02-17T04:40:21;20.77;;;8.38;;
53010;SDS011;42803;55.762;38.084;2023-02-17T04:42:52;17.08;;;7.55;;
53010;SDS011;42803;55.762;38.084;2023-02-17T04:45:21;20.05;;;7.97;;
53010;SDS011;42803;55.762;38.084;2023-02-17T04:47:50;20.17;;;8.38;;
53010;SDS011;42803;55.762;38.084;2023-02-17T04:50:20;13.63;;;7.93;;
53010;SDS011;42803;55.762;38.084;2023-02-17T04:52:49;21.42;;;8.32;;
53010;SDS011;42803;55.762;38.084;2023-02-17T04:55:18;17.60;;;8.50;;
53010;SDS011;42803;55.762;38.084;2023-02-17T04:57:47;22.10;;;9.15;;
53010;SDS011;42803;55.762;38.084;2023-02-17T05:00:21;21.95;;;7.45;;
53010;SDS011;42803;55.762;38.084;2023-02-17T05:02:50;22.17;;;9.10;;
53010;SDS011;42803;55.762;38.084;2023-02-17T05:05:20;24.13;;;10.02;;
53010;SDS011;42803;55.762;38.084;2023-02-17T05:07:49;19.98;;;8.38;;
53010;SDS011;42803;55.762;38.084;2023-02-17T05:10:18;23.50;;;9.90;;
53010;SDS011;42803;55.762;38.084;2023-02-17T05:12:50;16.27;;;7.68;;
53010;SDS011;42803;55.762;38.084;2023-02-17T05:15:21;27.08;;;8.90;;
53010;SDS011;42803;55.762;38.084;2023-02-17T05:17:50;22.05;;;8.95;;
53010;SDS011;42803;55.762;38.084;2023-02-17T05:20:19;20.95;;;8.90;;
53010;SDS011;42803;55.762;38.084;2023-02-17T05:22:49;27.23;;;8.75;;
53010;SDS011;42803;55.762;38.084;2023-02-17T05:25:18;17.42;;;8.32;;
53010;SDS011;42803;55.762;38.084;2023-02-17T05:27:47;19.13;;;8.48;;
53010;SDS011;42803;55.762;38.084;2023-02-17T05:30:16;19.60;;;8.50;;
53010;SDS011;42803;55.762;38.084;2023-02-17T05:32:47;13.55;;;6.47;;
53010;SDS011;42803;55.762;38.084;2023-02-17T05:35:16;16.92;;;7.65;;
53010;SDS011;42803;55.762;38.084;2023-02-17T05:37:45;22.80;;;8.52;;
53010;SDS011;42803;55.762;38.084;2023-02-17T05:40:14;21.90;;;8.90;;
53010;SDS011;42803;55.762;38.084;2023-02-17T05:42:43;18.95;;;8.57;;
53010;SDS011;42803;55.762;38.084;2023-02-17T05:45:12;20.58;;;9.43;;
53010;SDS011;42803;55.762;38.084;2023-02-17T05:47:41;22.27;;;8.98;;
53010;SDS011;42803;55.762;38.084;2023-02-17T05:50:12;20.75;;;8.48;;
53010;SDS011;42803;55.762;38.084;2023-02-17T05:52:41;19.65;;;8.65;;
53010;SDS011;42803;55.762;38.084;2023-02-17T05:55:13;25.13;;;9.02;;
53010;SDS011;42803;55.762;38.084;2023-02-17T05:57:42;23.80;;;9.75;;
53010;SDS011;42803;55.762;38.084;2023-02-17T06:00:11;21.35;;;9.73;;
53010;SDS011;42803;55.762;38.084;2023-02-17T06:02:41;20.95;;;9.30;;
53010;SDS011;42803;55.762;38.084;2023-02-17T06:05:11;23.27;;;11.25;;
53010;SDS011;42803;55.762;38.084;2023-02-17T06:07:41;22.77;;;9.48;;
53010;SDS011;42803;55.762;38.084;2023-02-17T06:10:11;25.48;;;9.43;;
53010;SDS011;42803;55.762;38.084;2023-02-17T06:12:40;18.92;;;8.90;;
53010;SDS011;42803;55.762;38.084;2023-02-17T06:15:09;22.58;;;9.48;;
53010;SDS011;42803;55.762;38.084;2023-02-17T06:17:39;23.95;;;10.20;;
53010;SDS011;42803;55.762;38.084;2023-02-17T06:20:08;21.33;;;9.50;;
53010;SDS011;42803;55.762;38.084;2023-02-17T06:22:39;23.60;;;9.50;;
53010;SDS011;42803;55.762;38.084;2023-02-17T06:25:08;20.15;;;9.18;;
53010;SDS011;42803;55.762;38.084;2023-02-17T06:27:39;25.50;;;9.48;;
53010;SDS011;42803;55.762;38.084;2023-02-17T06:30:10;26.55;;;9.95;;
53010;SDS011;42803;55.762;38.084;2023-02-17T06:32:41;23.05;;;9.73;;
53010;SDS011;42803;55.762;38.084;2023-02-17T06:35:10;21.85;;;9.93;;
53010;SDS011;42803;55.762;38.084;2023-02-17T06:37:40;23.35;;;10.35;;
53010;SDS011;42803;55.762;38.084;2023-02-17T06:40:10;19.23;;;8.52;;
53010;SDS011;42803;55.762;38.084;2023-02-17T06:42:39;20.35;;;9.05;;
53010;SDS011;42803;55.762;38.084;2023-02-17T06:45:08;20.80;;;10.52;;
53010;SDS011;42803;55.762;38.084;2023-02-17T06:47:37;22.77;;;9.93;;
53010;SDS011;42803;55.762;38.084;2023-02-17T06:50:07;19.55;;;9.70;;
53010;SDS011;42803;55.762;38.084;2023-02-17T06:52:37;22.30;;;10.52;;
53010;SDS011;42803;55.762;38.084;2023-02-17T06:55:07;27.50;;;11.00;;
53010;SDS011;42803;55.762;38.084;2023-02-17T06:57:37;30.75;;;12.93;;
53010;SDS011;42803;55.762;38.084;2023-02-17T07:00:06;28.73;;;11.40;;
53010;SDS011;42803;55.762;38.084;2023-02-17T07:02:36;24.98;;;10.90;;
53010;SDS011;42803;55.762;38.084;2023-02-17T07:05:06;27.08;;;11.07;;
53010;SDS011;42803;55.762;38.084;2023-02-17T07:07:35;23.25;;;10.10;;
53010;SDS011;42803;55.762;38.084;2023-02-17T07:10:05;22.25;;;10.95;;
53010;SDS011;42803;55.762;38.084;2023-02-17T07:12:36;22.15;;;10.25;;
53010;SDS011;42803;55.762;38.084;2023-02-17T07:15:06;20.40;;;9.52;;
53010;SDS011;42803;55.762;38.084;2023-02-17T07:17:38;22.67;;;11.77;;
53010;SDS011;42803;55.762;38.084;2023-02-17T07:20:08;17.70;;;9.75;;
53010;SDS011;42803;55.762;38.084;2023-02-17T07:22:38;23.23;;;9.95;;
53010;SDS011;42803;55.762;38.084;2023-02-17T07:25:09;17.13;;;8.70;;
53010;SDS011;42803;55.762;38.084;2023-02-17T07:27:40;22.58;;;9.43;;
53010;SDS011;42803;55.762;38.084;2023-02-17T07:30:09;23.42;;;9.75;;
53010;SDS011;42803;55.762;38.084;2023-02-17T07:32:39;20.40;;;7.90;;
53010;SDS011;42803;55.762;38.084;2023-02-17T07:35:08;14.85;;;8.65;;
53010;SDS011;42803;55.762;38.084;2023-02-17T07:37:37;23.30;;;9.43;;
53010;SDS011;42803;55.762;38.084;2023-02-17T07:40:07;18.70;;;8.00;;
53010;SDS011;42803;55.762;38.084;2023-02-17T07:42:36;18.00;;;9.38;;
53010;SDS011;42803;55.762;38.084;2023-02-17T07:45:08;13.82;;;5.70;;
53010;SDS011;42803;55.762;38.084;2023-02-17T07:47:37;11.55;;;6.25;;
53010;SDS011;42803;55.762;38.084;2023-02-17T07:50:07;8.20;;;4.80;;
53010;SDS011;42803;55.762;38.084;2023-02-17T07:52:36;10.05;;;5.07;;
53010;SDS011;42803;55.762;38.084;2023-02-17T07:55:09;7.32;;;4.70;;
53010;SDS011;42803;55.762;38.084;2023-02-17T07:57:38;11.95;;;4.95;;
53010;SDS011;42803;55.762;38.084;2023-02-17T08:00:10;9.27;;;4.50;;
53010;SDS011;42803;55.762;38.084;2023-02-17T08:02:44;10.98;;;4.68;;
53010;SDS011;42803;55.762;38.084;2023-02-17T08:05:13;9.60;;;4.38;;
53010;SDS011;42803;55.762;38.084;2023-02-17T08:07:42;11.40;;;4.43;;
53010;SDS011;42803;55.762;38.084;2023-02-17T08:10:12;7.70;;;4.53;;
53010;SDS011;42803;55.762;38.084;2023-02-17T08:12:58;9.57;;;5.22;;
53010;SDS011;42803;55.762;38.084;2023-02-17T08:15:46;12.63;;;5.63;;
53010;SDS011;42803;55.762;38.084;2023-02-17T08:18:15;10.40;;;4.55;;
53010;SDS011;42803;55.762;38.084;2023-02-17T08:20:44;11.00;;;5.63;;
53010;SDS011;42803;55.762;38.084;2023-02-17T08:23:13;11.13;;;5.78;;
53010;SDS011;42803;55.762;38.084;2023-02-17T08:25:43;10.65;;;4.85;;
53010;SDS011;42803;55.762;38.084;2023-02-17T08:28:14;7.43;;;4.63;;
53010;SDS011;42803;55.762;38.084;2023-02-17T08:30:43;10.75;;;5.57;;
53010;SDS011;42803;55.762;38.084;2023-02-17T08:33:14;12.35;;;4.95;;
53010;SDS011;42803;55.762;38.084;2023-02-17T08:35:45;9.77;;;4.25;;
53010;SDS011;42803;55.762;38.084;2023-02-17T08:38:15;10.13;;;5.00;;
53010;SDS011;42803;55.762;38.084;2023-02-17T08:40:44;6.72;;;4.47;;
53010;SDS011;42803;55.762;38.084;2023-02-17T08:43:13;9.38;;;5.07;;
53010;SDS011;42803;55.762;38.084;2023-02-17T08:45:42;10.68;;;5.72;;
53010;SDS011;42803;55.762;38.084;2023-02-17T08:48:15;12.93;;;6.47;;
53010;SDS011;42803;55.762;38.084;2023-02-17T08:50:45;6.45;;;3.92;;
53010;SDS011;42803;55.762;38.084;2023-02-17T08:53:15;9.35;;;3.95;;
53010;SDS011;42803;55.762;38.084;2023-02-17T08:55:44;9.27;;;4.25;;
53010;SDS011;42803;55.762;38.084;2023-02-17T08:58:16;8.63;;;4.20;;
53010;SDS011;42803;55.762;38.084;2023-02-17T09:00:46;8.85;;;4.10;;
53010;SDS011;42803;55.762;38.084;2023-02-17T09:03:17;11.30;;;5.15;;
53010;SDS011;42803;55.762;38.084;2023-02-17T09:05:46;13.48;;;5.00;;
53010;SDS011;42803;55.762;38.084;2023-02-17T09:08:17;9.00;;;4.57;;
53010;SDS011;42803;55.762;38.084;2023-02-17T09:10:46;8.43;;;3.92;;
53010;SDS011;42803;55.762;38.084;2023-02-17T09:13:16;10.85;;;4.75;;
53010;SDS011;42803;55.762;38.084;2023-02-17T09:15:46;7.80;;;4.05;;
53010;SDS011;42803;55.762;38.084;2023-02-17T09:18:19;6.45;;;3.90;;
53010;SDS011;42803;55.762;38.084;2023-02-17T09:20:49;7.93;;;4.43;;
53010;SDS011;42803;55.762;38.084;2023-02-17T09:23:19;8.95;;;4.30;;
53010;SDS011;42803;55.762;38.084;2023-02-17T09:25:48;5.93;;;3.75;;
53010;SDS011;42803;55.762;38.084;2023-02-17T09:28:17;6.53;;;3.35;;
53010;SDS011;42803;55.762;38.084;2023-02-17T09:30:46;8.00;;;4.35;;
53010;SDS011;42803;55.762;38.084;2023-02-17T09:33:15;6.97;;;4.35;;
53010;SDS011;42803;55.762;38.084;2023-02-17T09:35:47;6.25;;;3.72;;
53010;SDS011;42803;55.762;38.084;2023-02-17T09:38:16;8.68;;;4.22;;
53010;SDS011;42803;55.762;38.084;2023-02-17T09:40:46;6.18;;;4.07;;
53010;SDS011;42803;55.762;38.084;2023-02-17T09:43:18;7.40;;;3.45;;
53010;SDS011;42803;55.762;38.084;2023-02-17T09:45:55;8.20;;;4.55;;
53010;SDS011;42803;55.762;38.084;2023-02-17T09:48:30;10.27;;;5.00;;
53010;SDS011;42803;55.762;38.084;2023-02-17T09:51:03;6.65;;;4.00;;
53010;SDS011;42803;55.762;38.084;2023-02-17T09:53:40;9.80;;;4.80;;
53010;SDS011;42803;55.762;38.084;2023-02-17T09:56:13;8.05;;;4.70;;
53010;SDS011;42803;55.762;38.084;2023-02-17T09:58:48;8.50;;;4.17;;
53010;SDS011;42803;55.762;38.084;2023-02-17T10:01:23;8.80;;;4.45;;
53010;SDS011;42803;55.762;38.084;2023-02-17T10:04:07;9.38;;;4.43;;
53010;SDS011;42803;55.762;38.084;2023-02-17T10:06:46;7.70;;;4.57;;
53010;SDS011;42803;55.762;38.084;2023-02-17T10:09:20;7.35;;;4.57;;
53010;SDS011;42803;55.762;38.084;2023-02-17T10:11:54;11.88;;;5.15;;
53010;SDS011;42803;55.762;38.084;2023-02-17T10:14:30;8.25;;;4.55;;
53010;SDS011;42803;55.762;38.084;2023-02-17T10:19:35;7.13;;;4.20;;
53010;SDS011;42803;55.762;38.084;2023-02-17T10:22:16;12.05;;;4.57;;
53010;SDS011;42803;55.762;38.084;2023-02-17T10:24:47;8.35;;;3.83;;
53010;SDS011;42803;55.762;38.084;2023-02-17T10:27:35;9.55;;;4.53;;
53010;SDS011;42803;55.762;38.084;2023-02-17T10:30:13;10.50;;;4.65;;
53010;SDS011;42803;55.762;38.084;2023-02-17T10:32:58;9.77;;;4.63;;
53010;SDS011;42803;55.762;38.084;2023-02-17T10:35:33;9.20;;;4.45;;
53010;SDS011;42803;55.762;38.084;2023-02-17T10:38:15;8.98;;;4.68;;
53010;SDS011;42803;55.762;38.084;2023-02-17T10:40:48;9.13;;;4.53;;
53010;SDS011;42803;55.762;38.084;2023-02-17T10:43:20;7.57;;;4.30;;
53010;SDS011;42803;55.762;38.084;2023-02-17T10:45:56;8.80;;;4.43;;
53010;SDS011;42803;55.762;38.084;2023-02-17T10:48:27;7.40;;;4.35;;
53010;SDS011;42803;55.762;38.084;2023-02-17T10:51:05;6.57;;;4.72;;
53010;SDS011;42803;55.762;38.084;2023-02-17T10:53:37;11.93;;;4.63;;
53010;SDS011;42803;55.762;38.084;2023-02-17T10:56:10;8.87;;;4.73;;
53010;SDS011;42803;55.762;38.084;2023-02-17T10:58:49;8.73;;;4.88;;
53010;SDS011;42803;55.762;38.084;2023-02-17T11:01:21;10.43;;;5.60;;
53010;SDS011;42803;55.762;38.084;2023-02-17T11:04:00;10.73;;;5.38;;
53010;SDS011;42803;55.762;38.084;2023-02-17T11:06:31;6.88;;;3.97;;
53010;SDS011;42803;55.762;38.084;2023-02-17T11:09:15;9.38;;;4.68;;
53010;SDS011;42803;55.762;38.084;2023-02-17T11:11:50;9.63;;;5.15;;
53010;SDS011;42803;55.762;38.084;2023-02-17T11:14:25;11.02;;;5.60;;
53010;SDS011;42803;55.762;38.084;2023-02-17T11:16:56;10.10;;;5.32;;
53010;SDS011;42803;55.762;38.084;2023-02-17T11:19:27;11.95;;;5.82;;
53010;SDS011;42803;55.762;38.084;2023-02-17T11:22:02;12.55;;;5.88;;
53010;SDS011;42803;55.762;38.084;2023-02-17T11:24:35;10.63;;;5.53;;
53010;SDS011;42803;55.762;38.084;2023-02-17T11:27:07;11.40;;;6.10;;
53010;SDS011;42803;55.762;38.084;2023-02-17T11:29:39;18.23;;;9.50;;
53010;SDS011;42803;55.762;38.084;2023-02-17T11:32:10;11.60;;;6.50;;
53010;SDS011;42803;55.762;38.084;2023-02-17T11:34:41;15.43;;;6.32;;
53010;SDS011;42803;55.762;38.084;2023-02-17T11:37:17;13.35;;;5.88;;
53010;SDS011;42803;55.762;38.084;2023-02-17T11:39:50;12.35;;;5.30;;
53010;SDS011;42803;55.762;38.084;2023-02-17T11:42:21;14.50;;;5.85;;
53010;SDS011;42803;55.762;38.084;2023-02-17T11:44:51;11.07;;;5.78;;
53010;SDS011;42803;55.762;38.084;2023-02-17T11:47:23;10.30;;;5.68;;
53010;SDS011;42803;55.762;38.084;2023-02-17T11:50:10;14.30;;;4.93;;
53010;SDS011;42803;55.762;38.084;2023-02-17T11:53:13;9.48;;;5.07;;
53010;SDS011;42803;55.762;38.084;2023-02-17T11:55:56;9.63;;;5.27;;
53010;SDS011;42803;55.762;38.084;2023-02-17T11:58:47;9.77;;;4.20;;
53010;SDS011;42803;55.762;38.084;2023-02-17T12:01:31;9.82;;;4.35;;
53010;SDS011;42803;55.762;38.084;2023-02-17T12:04:22;6.78;;;3.92;;
53010;SDS011;42803;55.762;38.084;2023-02-17T12:06:58;9.48;;;4.28;;
53010;SDS011;42803;55.762;38.084;2023-02-17T12:09:47;8.13;;;4.72;;
53010;SDS011;42803;55.762;38.084;2023-02-17T12:12:29;8.30;;;5.15;;
53010;SDS011;42803;55.762;38.084;2023-02-17T12:15:14;9.05;;;4.53;;
53010;SDS011;42803;55.762;38.084;2023-02-17T12:17:55;9.30;;;4.10;;
53010;SDS011;42803;55.762;38.084;2023-02-17T12:20:40;8.68;;;4.65;;
53010;SDS011;42803;55.762;38.084;2023-02-17T12:23:21;8.60;;;4.43;;
53010;SDS011;42803;55.762;38.084;2023-02-17T12:26:00;7.80;;;4.00;;
53010;SDS011;42803;55.762;38.084;2023-02-17T12:28:39;9.23;;;4.53;;
53010;SDS011;42803;55.762;38.084;2023-02-17T12:31:20;11.55;;;5.40;;
53010;SDS011;42803;55.762;38.084;2023-02-17T12:34:05;15.13;;;6.43;;
53010;SDS011;42803;55.762;38.084;2023-02-17T12:36:43;16.15;;;6.15;;
53010;SDS011;42803;55.762;38.084;2023-02-17T12:39:14;12.13;;;5.80;;
53010;SDS011;42803;55.762;38.084;2023-02-17T12:41:46;13.68;;;6.18;;
53010;SDS011;42803;55.762;38.084;2023-02-17T12:44:20;10.93;;;5.35;;
53010;SDS011;42803;55.762;38.084;2023-02-17T12:46:52;10.75;;;5.25;;
53010;SDS011;42803;55.762;38.084;2023-02-17T12:49:26;11.68;;;5.10;;
53010;SDS011;42803;55.762;38.084;2023-02-17T12:51:59;11.05;;;5.57;;
53010;SDS011;42803;55.762;38.084;2023-02-17T12:54:34;13.25;;;7.07;;
53010;SDS011;42803;55.762;38.084;2023-02-17T12:59:44;13.93;;;6.45;;
53010;SDS011;42803;55.762;38.084;2023-02-17T13:02:15;15.82;;;7.38;;
53010;SDS011;42803;55.762;38.084;2023-02-17T13:04:46;12.50;;;6.05;;
53010;SDS011;42803;55.762;38.084;2023-02-17T13:07:20;9.50;;;5.70;;
53010;SDS011;42803;55.762;38.084;2023-02-17T13:10:02;12.05;;;6.43;;
53010;SDS011;42803;55.762;38.084;2023-02-17T13:12:34;11.40;;;6.03;;
53010;SDS011;42803;55.762;38.084;2023-02-17T13:15:24;12.45;;;6.53;;
53010;SDS011;42803;55.762;38.084;2023-02-17T13:18:06;14.45;;;6.97;;
53010;SDS011;42803;55.762;38.084;2023-02-17T13:20:41;14.23;;;7.00;;
53010;SDS011;42803;55.762;38.084;2023-02-17T13:23:26;17.83;;;7.90;;
53010;SDS011;42803;55.762;38.084;2023-02-17T13:26:10;15.80;;;7.60;;
53010;SDS011;42803;55.762;38.084;2023-02-17T13:28:44;16.23;;;7.65;;
53010;SDS011;42803;55.762;38.084;2023-02-17T13:31:15;18.20;;;7.78;;
53010;SDS011;42803;55.762;38.084;2023-02-17T13:33:48;19.05;;;8.35;;
53010;SDS011;42803;55.762;38.084;2023-02-17T13:36:32;22.30;;;8.60;;
53010;SDS011;42803;55.762;38.084;2023-02-17T13:39:04;21.50;;;9.38;;
53010;SDS011;42803;55.762;38.084;2023-02-17T13:41:54;24.23;;;9.55;;
53010;SDS011;42803;55.762;38.084;2023-02-17T13:44:26;24.98;;;10.50;;
53010;SDS011;42803;55.762;38.084;2023-02-17T13:46:58;23.63;;;10.20;;
53010;SDS011;42803;55.762;38.084;2023-02-17T13:49:31;18.08;;;8.88;;
53010;SDS011;42803;55.762;38.084;2023-02-17T13:52:09;22.70;;;9.73;;
53010;SDS011;42803;55.762;38.084;2023-02-17T13:54:52;21.30;;;9.50;;
53010;SDS011;42803;55.762;38.084;2023-02-17T13:57:24;19.70;;;8.95;;
53010;SDS011;42803;55.762;38.084;2023-02-17T14:00:05;25.15;;;9.40;;
53010;SDS011;42803;55.762;38.084;2023-02-17T14:02:45;22.98;;;9.88;;
53010;SDS011;42803;55.762;38.084;2023-02-17T14:05:17;19.42;;;9.60;;
53010;SDS011;42803;55.762;38.084;2023-02-17T14:07:47;22.80;;;9.27;;
53010;SDS011;42803;55.762;38.084;2023-02-17T14:10:18;25.05;;;10.68;;
53010;SDS011;42803;55.762;38.084;2023-02-17T14:12:51;19.05;;;9.05;;
53010;SDS011;42803;55.762;38.084;2023-02-17T14:15:22;22.05;;;8.90;;
53010;SDS011;42803;55.762;38.084;2023-02-17T14:31:43;19.95;;;7.93;;
53010;SDS011;42803;55.762;38.084;2023-02-17T14:34:24;20.48;;;8.48;;
53010;SDS011;42803;55.762;38.084;2023-02-17T14:36:56;23.42;;;7.65;;
53010;SDS011;42803;55.762;38.084;2023-02-17T14:39:35;19.02;;;8.32;;
53010;SDS011;42803;55.762;38.084;2023-02-17T14:42:04;23.25;;;9.05;;
53010;SDS011;42803;55.762;38.084;2023-02-17T14:44:33;20.25;;;8.85;;
53010;SDS011;42803;55.762;38.084;2023-02-17T14:47:04;19.83;;;9.05;;
53010;SDS011;42803;55.762;38.084;2023-02-17T14:49:33;20.55;;;9.00;;
53010;SDS011;42803;55.762;38.084;2023-02-17T14:52:05;19.42;;;8.18;;
53010;SDS011;42803;55.762;38.084;2023-02-17T14:54:44;20.00;;;8.82;;
53010;SDS011;42803;55.762;38.084;2023-02-17T14:57:14;20.10;;;9.05;;
53010;SDS011;42803;55.762;38.084;2023-02-17T14:59:45;31.00;;;11.75;;
53010;SDS011;42803;55.762;38.084;2023-02-17T15:02:16;23.75;;;9.02;;
53010;SDS011;42803;55.762;38.084;2023-02-17T15:04:47;19.50;;;8.60;;
53010;SDS011;42803;55.762;38.084;2023-02-17T15:07:16;26.40;;;10.45;;
53010;SDS011;42803;55.762;38.084;2023-02-17T15:09:46;20.92;;;9.38;;
53010;SDS011;42803;55.762;38.084;2023-02-17T15:12:17;30.33;;;11.40;;
53010;SDS011;42803;55.762;38.084;2023-02-17T15:14:48;29.13;;;10.75;;
53010;SDS011;42803;55.762;38.084;2023-02-17T15:17:18;26.73;;;11.10;;
53010;SDS011;42803;55.762;38.084;2023-02-17T15:19:48;21.80;;;9.02;;
53010;SDS011;42803;55.762;38.084;2023-02-17T15:22:17;23.10;;;11.73;;